sensor_id;sensor_type;location;lat;lon;timestamp;P1;durP1;ratioP1;P2;durP2;ratioP2
64459;SDS011;50828;53.756;21.140;2023-04-05T00:03:57;8.50;;;3.00;;
64459;SDS011;50828;53.756;21.140;2023-04-05T00:09:06;5.90;;;3.20;;
64459;SDS011;50828;53.756;21.140;2023-04-05T00:14:14;8.10;;;3.30;;
64459;SDS011;50828;53.756;21.140;2023-04-05T00:19:22;7.50;;;3.60;;
64459;SDS011;50828;53.756;21.140;2023-04-05T00:24:29;9.90;;;4.20;;
64459;SDS011;50828;53.756;21.140;2023-04-05T00:29:42;9.80;;;4.10;;
64459;SDS011;50828;53.756;21.140;2023-04-05T00:34:49;7.50;;;3.90;;
64459;SDS011;50828;53.756;21.140;2023-04-05T00:39:57;10.40;;;4.50;;
64459;SDS011;50828;53.756;21.140;2023-04-05T00:45:06;11.40;;;5.00;;
64459;SDS011;50828;53.756;21.140;2023-04-05T00:50:15;9.90;;;4.70;;
64459;SDS011;50828;53.756;21.140;2023-04-05T00:55:25;7.60;;;3.40;;
64459;SDS011;50828;53.756;21.140;2023-04-05T01:00:34;9.70;;;4.10;;
64459;SDS011;50828;53.756;21.140;2023-04-05T01:05:45;12.10;;;3.80;;
64459;SDS011;50828;53.756;21.140;2023-04-05T01:10:59;6.90;;;3.60;;
64459;SDS011;50828;53.756;21.140;2023-04-05T01:16:10;7.30;;;3.70;;
64459;SDS011;50828;53.756;21.140;2023-04-05T01:27:17;6.80;;;3.50;;
64459;SDS011;50828;53.756;21.140;2023-04-05T01:32:33;7.50;;;3.30;;
64459;SDS011;50828;53.756;21.140;2023-04-05T01:38:01;6.40;;;3.00;;
64459;SDS011;50828;53.756;21.140;2023-04-05T01:43:13;6.90;;;3.30;;
64459;SDS011;50828;53.756;21.140;2023-04-05T01:48:21;7.70;;;3.10;;
64459;SDS011;50828;53.756;21.140;2023-04-05T01:53:29;7.30;;;3.20;;
64459;SDS011;50828;53.756;21.140;2023-04-05T01:58:37;7.90;;;2.80;;
64459;SDS011;50828;53.756;21.140;2023-04-05T02:03:45;7.10;;;3.10;;
64459;SDS011;50828;53.756;21.140;2023-04-05T02:08:54;6.50;;;2.90;;
64459;SDS011;50828;53.756;21.140;2023-04-05T02:14:02;8.10;;;3.40;;
64459;SDS011;50828;53.756;21.140;2023-04-05T02:19:10;7.30;;;3.20;;
64459;SDS011;50828;53.756;21.140;2023-04-05T02:24:20;7.50;;;3.30;;
64459;SDS011;50828;53.756;21.140;2023-04-05T02:29:28;9.30;;;3.70;;
64459;SDS011;50828;53.756;21.140;2023-04-05T02:34:36;9.20;;;3.20;;
64459;SDS011;50828;53.756;21.140;2023-04-05T02:39:44;7.20;;;3.50;;
64459;SDS011;50828;53.756;21.140;2023-04-05T02:44:51;9.50;;;3.40;;
64459;SDS011;50828;53.756;21.140;2023-04-05T02:50:00;6.60;;;3.20;;
64459;SDS011;50828;53.756;21.140;2023-04-05T02:55:13;6.70;;;3.10;;
64459;SDS011;50828;53.756;21.140;2023-04-05T03:00:22;5.90;;;3.40;;
64459;SDS011;50828;53.756;21.140;2023-04-05T03:05:31;4.90;;;2.90;;
64459;SDS011;50828;53.756;21.140;2023-04-05T03:10:40;7.70;;;2.80;;
64459;SDS011;50828;53.756;21.140;2023-04-05T03:15:54;7.40;;;3.60;;
64459;SDS011;50828;53.756;21.140;2023-04-05T03:21:03;8.60;;;3.60;;
64459;SDS011;50828;53.756;21.140;2023-04-05T03:26:28;6.80;;;3.20;;
64459;SDS011;50828;53.756;21.140;2023-04-05T03:31:37;6.90;;;3.40;;
64459;SDS011;50828;53.756;21.140;2023-04-05T03:36:45;5.40;;;2.70;;
64459;SDS011;50828;53.756;21.140;2023-04-05T03:42:01;10.00;;;3.20;;
64459;SDS011;50828;53.756;21.140;2023-04-05T03:47:09;8.80;;;3.70;;
64459;SDS011;50828;53.756;21.140;2023-04-05T03:52:19;7.50;;;3.20;;
64459;SDS011;50828;53.756;21.140;2023-04-05T03:57:29;12.20;;;5.00;;
64459;SDS011;50828;53.756;21.140;2023-04-05T04:02:43;8.50;;;3.90;;
64459;SDS011;50828;53.756;21.140;2023-04-05T04:07:56;13.30;;;6.10;;
64459;SDS011;50828;53.756;21.140;2023-04-05T04:13:03;14.70;;;6.30;;
64459;SDS011;50828;53.756;21.140;2023-04-05T04:18:11;16.90;;;7.20;;
64459;SDS011;50828;53.756;21.140;2023-04-05T04:23:47;16.10;;;6.60;;
64459;SDS011;50828;53.756;21.140;2023-04-05T04:29:16;12.00;;;4.90;;
64459;SDS011;50828;53.756;21.140;2023-04-05T04:34:52;8.00;;;3.80;;
64459;SDS011;50828;53.756;21.140;2023-04-05T04:40:28;8.20;;;3.00;;
64459;SDS011;50828;53.756;21.140;2023-04-05T04:46:04;7.10;;;2.90;;
64459;SDS011;50828;53.756;21.140;2023-04-05T04:51:35;6.20;;;3.10;;
64459;SDS011;50828;53.756;21.140;2023-04-05T04:56:44;7.50;;;3.30;;
64459;SDS011;50828;53.756;21.140;2023-04-05T05:01:52;6.30;;;3.10;;
64459;SDS011;50828;53.756;21.140;2023-04-05T05:07:00;8.30;;;3.40;;
64459;SDS011;50828;53.756;21.140;2023-04-05T05:12:10;8.30;;;3.50;;
64459;SDS011;50828;53.756;21.140;2023-04-05T05:17:18;8.10;;;3.40;;
64459;SDS011;50828;53.756;21.140;2023-04-05T05:22:26;7.40;;;3.40;;
64459;SDS011;50828;53.756;21.140;2023-04-05T05:27:35;6.50;;;3.30;;
64459;SDS011;50828;53.756;21.140;2023-04-05T05:32:43;5.80;;;3.10;;
64459;SDS011;50828;53.756;21.140;2023-04-05T05:37:51;7.80;;;3.50;;
64459;SDS011;50828;53.756;21.140;2023-04-05T05:42:58;7.00;;;3.50;;
64459;SDS011;50828;53.756;21.140;2023-04-05T05:48:05;8.40;;;4.20;;
64459;SDS011;50828;53.756;21.140;2023-04-05T05:53:14;9.30;;;4.20;;
64459;SDS011;50828;53.756;21.140;2023-04-05T05:58:23;6.00;;;3.50;;
64459;SDS011;50828;53.756;21.140;2023-04-05T06:03:31;9.30;;;3.90;;
64459;SDS011;50828;53.756;21.140;2023-04-05T06:08:39;6.80;;;3.30;;
64459;SDS011;50828;53.756;21.140;2023-04-05T06:13:47;5.80;;;3.50;;
64459;SDS011;50828;53.756;21.140;2023-04-05T06:18:56;7.30;;;3.80;;
64459;SDS011;50828;53.756;21.140;2023-04-05T06:24:04;6.00;;;3.30;;
64459;SDS011;50828;53.756;21.140;2023-04-05T06:29:12;7.60;;;3.60;;
64459;SDS011;50828;53.756;21.140;2023-04-05T06:34:20;6.60;;;3.80;;
64459;SDS011;50828;53.756;21.140;2023-04-05T06:39:29;6.20;;;3.80;;
64459;SDS011;50828;53.756;21.140;2023-04-05T06:44:36;7.90;;;3.70;;
64459;SDS011;50828;53.756;21.140;2023-04-05T06:49:44;8.20;;;4.00;;
64459;SDS011;50828;53.756;21.140;2023-04-05T06:54:52;9.60;;;4.20;;
64459;SDS011;50828;53.756;21.140;2023-04-05T07:00:02;6.00;;;3.60;;
64459;SDS011;50828;53.756;21.140;2023-04-05T07:05:13;7.10;;;3.20;;
64459;SDS011;50828;53.756;21.140;2023-04-05T07:10:21;8.30;;;3.70;;
64459;SDS011;50828;53.756;21.140;2023-04-05T07:15:28;8.70;;;4.00;;
64459;SDS011;50828;53.756;21.140;2023-04-05T07:20:35;8.30;;;3.90;;
64459;SDS011;50828;53.756;21.140;2023-04-05T07:25:43;9.30;;;3.90;;
64459;SDS011;50828;53.756;21.140;2023-04-05T07:30:51;7.10;;;3.80;;
64459;SDS011;50828;53.756;21.140;2023-04-05T07:36:00;8.50;;;4.20;;
64459;SDS011;50828;53.756;21.140;2023-04-05T07:41:09;7.80;;;4.20;;
64459;SDS011;50828;53.756;21.140;2023-04-05T07:46:20;6.80;;;3.50;;
64459;SDS011;50828;53.756;21.140;2023-04-05T07:51:28;5.80;;;3.10;;
64459;SDS011;50828;53.756;21.140;2023-04-05T07:56:39;6.50;;;2.80;;
64459;SDS011;50828;53.756;21.140;2023-04-05T08:08:05;5.30;;;1.80;;
64459;SDS011;50828;53.756;21.140;2023-04-05T08:13:13;6.20;;;2.10;;
64459;SDS011;50828;53.756;21.140;2023-04-05T08:18:22;4.20;;;2.20;;
64459;SDS011;50828;53.756;21.140;2023-04-05T08:23:29;3.20;;;1.80;;
64459;SDS011;50828;53.756;21.140;2023-04-05T08:28:38;4.80;;;2.10;;
64459;SDS011;50828;53.756;21.140;2023-04-05T08:33:46;5.80;;;2.20;;
64459;SDS011;50828;53.756;21.140;2023-04-05T08:38:54;3.40;;;2.00;;
64459;SDS011;50828;53.756;21.140;2023-04-05T08:44:04;3.70;;;1.90;;
64459;SDS011;50828;53.756;21.140;2023-04-05T08:49:14;3.40;;;1.60;;
64459;SDS011;50828;53.756;21.140;2023-04-05T08:54:23;5.10;;;2.00;;
64459;SDS011;50828;53.756;21.140;2023-04-05T08:59:31;4.50;;;1.90;;
64459;SDS011;50828;53.756;21.140;2023-04-05T09:04:42;4.60;;;2.20;;
64459;SDS011;50828;53.756;21.140;2023-04-05T09:09:52;3.50;;;1.80;;
64459;SDS011;50828;53.756;21.140;2023-04-05T09:15:02;4.70;;;2.00;;
64459;SDS011;50828;53.756;21.140;2023-04-05T09:20:12;3.90;;;2.20;;
64459;SDS011;50828;53.756;21.140;2023-04-05T09:30:45;3.30;;;1.90;;
64459;SDS011;50828;53.756;21.140;2023-04-05T09:35:54;3.30;;;1.80;;
64459;SDS011;50828;53.756;21.140;2023-04-05T09:41:02;2.40;;;1.30;;
64459;SDS011;50828;53.756;21.140;2023-04-05T09:51:47;4.40;;;1.70;;
64459;SDS011;50828;53.756;21.140;2023-04-05T09:56:55;3.30;;;1.10;;
64459;SDS011;50828;53.756;21.140;2023-04-05T10:02:03;2.50;;;1.50;;
64459;SDS011;50828;53.756;21.140;2023-04-05T10:07:11;3.90;;;1.60;;
64459;SDS011;50828;53.756;21.140;2023-04-05T10:12:23;3.70;;;1.30;;
64459;SDS011;50828;53.756;21.140;2023-04-05T10:17:33;3.30;;;1.60;;
64459;SDS011;50828;53.756;21.140;2023-04-05T10:22:55;5.20;;;2.20;;
64459;SDS011;50828;53.756;21.140;2023-04-05T10:28:07;3.30;;;1.70;;
64459;SDS011;50828;53.756;21.140;2023-04-05T10:33:20;2.90;;;1.50;;
64459;SDS011;50828;53.756;21.140;2023-04-05T10:38:35;4.00;;;1.60;;
64459;SDS011;50828;53.756;21.140;2023-04-05T10:43:53;5.90;;;1.60;;
64459;SDS011;50828;53.756;21.140;2023-04-05T10:49:10;2.40;;;1.30;;
64459;SDS011;50828;53.756;21.140;2023-04-05T10:54:25;2.50;;;1.30;;
64459;SDS011;50828;53.756;21.140;2023-04-05T10:59:34;3.40;;;1.10;;
64459;SDS011;50828;53.756;21.140;2023-04-05T11:04:47;2.00;;;1.00;;
64459;SDS011;50828;53.756;21.140;2023-04-05T11:10:00;1.30;;;0.80;;
64459;SDS011;50828;53.756;21.140;2023-04-05T11:15:29;2.50;;;0.80;;
64459;SDS011;50828;53.756;21.140;2023-04-05T11:20:44;5.50;;;1.40;;
64459;SDS011;50828;53.756;21.140;2023-04-05T11:26:02;2.80;;;0.90;;
64459;SDS011;50828;53.756;21.140;2023-04-05T11:31:13;2.20;;;1.00;;
64459;SDS011;50828;53.756;21.140;2023-04-05T11:36:35;3.00;;;1.30;;
64459;SDS011;50828;53.756;21.140;2023-04-05T11:41:52;4.00;;;1.40;;
64459;SDS011;50828;53.756;21.140;2023-04-05T11:47:02;3.60;;;1.10;;
64459;SDS011;50828;53.756;21.140;2023-04-05T11:52:12;2.50;;;1.10;;
64459;SDS011;50828;53.756;21.140;2023-04-05T11:57:22;4.30;;;1.40;;
64459;SDS011;50828;53.756;21.140;2023-04-05T12:02:33;4.80;;;1.40;;
64459;SDS011;50828;53.756;21.140;2023-04-05T12:07:41;4.10;;;1.30;;
64459;SDS011;50828;53.756;21.140;2023-04-05T12:12:49;2.90;;;1.20;;
64459;SDS011;50828;53.756;21.140;2023-04-05T12:17:59;3.00;;;1.20;;
64459;SDS011;50828;53.756;21.140;2023-04-05T12:23:06;3.80;;;1.50;;
64459;SDS011;50828;53.756;21.140;2023-04-05T12:28:14;1.60;;;1.10;;
64459;SDS011;50828;53.756;21.140;2023-04-05T12:33:28;2.20;;;1.40;;
64459;SDS011;50828;53.756;21.140;2023-04-05T12:38:41;2.90;;;1.30;;
64459;SDS011;50828;53.756;21.140;2023-04-05T12:43:52;3.40;;;1.30;;
64459;SDS011;50828;53.756;21.140;2023-04-05T12:49:05;3.10;;;1.60;;
64459;SDS011;50828;53.756;21.140;2023-04-05T12:54:19;3.60;;;1.30;;
64459;SDS011;50828;53.756;21.140;2023-04-05T12:59:28;4.90;;;1.70;;
64459;SDS011;50828;53.756;21.140;2023-04-05T13:04:36;4.80;;;1.50;;
64459;SDS011;50828;53.756;21.140;2023-04-05T13:09:45;4.60;;;1.80;;
64459;SDS011;50828;53.756;21.140;2023-04-05T13:14:53;3.90;;;1.40;;
64459;SDS011;50828;53.756;21.140;2023-04-05T13:20:01;4.20;;;1.60;;
64459;SDS011;50828;53.756;21.140;2023-04-05T13:25:09;3.10;;;1.70;;
64459;SDS011;50828;53.756;21.140;2023-04-05T13:30:18;4.40;;;2.00;;
64459;SDS011;50828;53.756;21.140;2023-04-05T13:35:26;5.00;;;1.80;;
64459;SDS011;50828;53.756;21.140;2023-04-05T13:40:34;5.80;;;1.90;;
64459;SDS011;50828;53.756;21.140;2023-04-05T13:45:42;3.10;;;1.60;;
64459;SDS011;50828;53.756;21.140;2023-04-05T13:50:51;4.10;;;2.00;;
64459;SDS011;50828;53.756;21.140;2023-04-05T13:55:59;8.00;;;2.80;;
64459;SDS011;50828;53.756;21.140;2023-04-05T14:01:06;17.50;;;5.20;;
64459;SDS011;50828;53.756;21.140;2023-04-05T14:06:13;17.20;;;5.40;;
64459;SDS011;50828;53.756;21.140;2023-04-05T14:11:26;14.90;;;6.50;;
64459;SDS011;50828;53.756;21.140;2023-04-05T14:16:33;12.20;;;6.40;;
64459;SDS011;50828;53.756;21.140;2023-04-05T14:21:41;12.90;;;5.00;;
64459;SDS011;50828;53.756;21.140;2023-04-05T14:26:49;6.70;;;3.70;;
64459;SDS011;50828;53.756;21.140;2023-04-05T14:31:59;7.80;;;3.90;;
64459;SDS011;50828;53.756;21.140;2023-04-05T14:37:08;6.30;;;3.50;;
64459;SDS011;50828;53.756;21.140;2023-04-05T14:42:16;10.60;;;4.80;;
64459;SDS011;50828;53.756;21.140;2023-04-05T14:47:38;12.10;;;5.70;;
64459;SDS011;50828;53.756;21.140;2023-04-05T14:52:46;10.00;;;5.50;;
64459;SDS011;50828;53.756;21.140;2023-04-05T14:57:55;17.40;;;6.60;;
64459;SDS011;50828;53.756;21.140;2023-04-05T15:03:03;12.50;;;6.80;;
64459;SDS011;50828;53.756;21.140;2023-04-05T15:08:10;13.60;;;6.70;;
64459;SDS011;50828;53.756;21.140;2023-04-05T15:13:18;12.40;;;5.90;;
64459;SDS011;50828;53.756;21.140;2023-04-05T15:18:29;9.90;;;4.70;;
64459;SDS011;50828;53.756;21.140;2023-04-05T15:23:38;11.90;;;5.20;;
64459;SDS011;50828;53.756;21.140;2023-04-05T15:28:46;9.10;;;4.40;;
64459;SDS011;50828;53.756;21.140;2023-04-05T15:33:55;6.60;;;3.50;;
64459;SDS011;50828;53.756;21.140;2023-04-05T15:39:04;10.70;;;4.70;;
64459;SDS011;50828;53.756;21.140;2023-04-05T15:44:14;10.20;;;5.20;;
64459;SDS011;50828;53.756;21.140;2023-04-05T15:49:22;36.20;;;10.70;;
64459;SDS011;50828;53.756;21.140;2023-04-05T15:54:31;181.60;;;47.60;;
64459;SDS011;50828;53.756;21.140;2023-04-05T15:59:38;137.40;;;35.80;;
64459;SDS011;50828;53.756;21.140;2023-04-05T16:04:48;138.30;;;40.50;;
64459;SDS011;50828;53.756;21.140;2023-04-05T16:10:00;119.00;;;33.40;;
64459;SDS011;50828;53.756;21.140;2023-04-05T16:15:11;151.90;;;43.00;;
64459;SDS011;50828;53.756;21.140;2023-04-05T16:20:19;141.30;;;39.40;;
64459;SDS011;50828;53.756;21.140;2023-04-05T16:25:27;93.40;;;28.10;;
64459;SDS011;50828;53.756;21.140;2023-04-05T16:30:35;58.90;;;18.80;;
64459;SDS011;50828;53.756;21.140;2023-04-05T16:35:45;38.00;;;17.40;;
64459;SDS011;50828;53.756;21.140;2023-04-05T16:40:53;188.50;;;75.50;;
64459;SDS011;50828;53.756;21.140;2023-04-05T16:46:02;321.00;;;119.80;;
64459;SDS011;50828;53.756;21.140;2023-04-05T16:51:11;318.70;;;117.90;;
64459;SDS011;50828;53.756;21.140;2023-04-05T16:56:19;338.90;;;127.50;;
64459;SDS011;50828;53.756;21.140;2023-04-05T17:01:28;392.00;;;137.00;;
64459;SDS011;50828;53.756;21.140;2023-04-05T17:06:37;305.90;;;106.10;;
64459;SDS011;50828;53.756;21.140;2023-04-05T17:11:46;301.30;;;96.40;;
64459;SDS011;50828;53.756;21.140;2023-04-05T17:16:54;172.40;;;55.90;;
64459;SDS011;50828;53.756;21.140;2023-04-05T17:22:01;187.40;;;55.50;;
64459;SDS011;50828;53.756;21.140;2023-04-05T17:27:09;457.00;;;145.80;;
64459;SDS011;50828;53.756;21.140;2023-04-05T17:32:18;378.10;;;123.40;;
64459;SDS011;50828;53.756;21.140;2023-04-05T17:37:27;337.50;;;134.90;;
64459;SDS011;50828;53.756;21.140;2023-04-05T17:42:35;356.30;;;136.40;;
64459;SDS011;50828;53.756;21.140;2023-04-05T17:47:43;338.90;;;113.30;;
64459;SDS011;50828;53.756;21.140;2023-04-05T17:52:52;368.70;;;108.90;;
64459;SDS011;50828;53.756;21.140;2023-04-05T17:58:01;301.80;;;82.70;;
64459;SDS011;50828;53.756;21.140;2023-04-05T18:03:09;208.50;;;58.00;;
64459;SDS011;50828;53.756;21.140;2023-04-05T18:08:19;184.10;;;50.50;;
64459;SDS011;50828;53.756;21.140;2023-04-05T18:13:30;234.00;;;56.70;;
64459;SDS011;50828;53.756;21.140;2023-04-05T18:18:38;287.50;;;72.60;;
64459;SDS011;50828;53.756;21.140;2023-04-05T18:23:47;330.50;;;78.40;;
64459;SDS011;50828;53.756;21.140;2023-04-05T18:28:55;232.20;;;61.20;;
64459;SDS011;50828;53.756;21.140;2023-04-05T18:34:04;200.80;;;64.80;;
64459;SDS011;50828;53.756;21.140;2023-04-05T18:39:13;285.70;;;88.90;;
64459;SDS011;50828;53.756;21.140;2023-04-05T18:44:23;297.00;;;87.60;;
64459;SDS011;50828;53.756;21.140;2023-04-05T18:49:33;168.60;;;49.10;;
64459;SDS011;50828;53.756;21.140;2023-04-05T18:54:41;52.10;;;18.60;;
64459;SDS011;50828;53.756;21.140;2023-04-05T18:59:50;24.70;;;9.10;;
64459;SDS011;50828;53.756;21.140;2023-04-05T19:04:59;69.00;;;19.90;;
64459;SDS011;50828;53.756;21.140;2023-04-05T19:10:08;90.60;;;29.50;;
64459;SDS011;50828;53.756;21.140;2023-04-05T19:15:17;84.50;;;27.80;;
64459;SDS011;50828;53.756;21.140;2023-04-05T19:20:26;60.60;;;22.60;;
64459;SDS011;50828;53.756;21.140;2023-04-05T19:25:34;34.40;;;13.60;;
64459;SDS011;50828;53.756;21.140;2023-04-05T19:30:42;75.60;;;26.20;;
64459;SDS011;50828;53.756;21.140;2023-04-05T19:35:50;112.90;;;39.70;;
64459;SDS011;50828;53.756;21.140;2023-04-05T19:40:57;151.00;;;57.50;;
64459;SDS011;50828;53.756;21.140;2023-04-05T19:46:06;169.00;;;60.90;;
64459;SDS011;50828;53.756;21.140;2023-04-05T19:51:15;133.20;;;48.60;;
64459;SDS011;50828;53.756;21.140;2023-04-05T19:56:31;157.30;;;53.20;;
64459;SDS011;50828;53.756;21.140;2023-04-05T20:01:42;144.30;;;45.10;;
64459;SDS011;50828;53.756;21.140;2023-04-05T20:06:50;84.40;;;27.20;;
64459;SDS011;50828;53.756;21.140;2023-04-05T20:11:59;32.80;;;11.60;;
64459;SDS011;50828;53.756;21.140;2023-04-05T20:17:08;25.40;;;8.60;;
64459;SDS011;50828;53.756;21.140;2023-04-05T20:22:19;12.20;;;4.90;;
64459;SDS011;50828;53.756;21.140;2023-04-05T20:27:28;31.00;;;11.30;;
64459;SDS011;50828;53.756;21.140;2023-04-05T20:32:36;42.70;;;15.90;;
64459;SDS011;50828;53.756;21.140;2023-04-05T20:37:46;36.30;;;14.10;;
64459;SDS011;50828;53.756;21.140;2023-04-05T20:42:54;46.40;;;17.80;;
64459;SDS011;50828;53.756;21.140;2023-04-05T20:48:03;41.30;;;16.30;;
64459;SDS011;50828;53.756;21.140;2023-04-05T20:53:12;32.00;;;13.20;;
64459;SDS011;50828;53.756;21.140;2023-04-05T20:58:20;32.30;;;14.00;;
64459;SDS011;50828;53.756;21.140;2023-04-05T21:03:28;27.80;;;12.50;;
64459;SDS011;50828;53.756;21.140;2023-04-05T21:08:38;35.10;;;14.70;;
64459;SDS011;50828;53.756;21.140;2023-04-05T21:13:47;28.80;;;14.10;;
64459;SDS011;50828;53.756;21.140;2023-04-05T21:18:55;29.80;;;12.70;;
64459;SDS011;50828;53.756;21.140;2023-04-05T21:24:03;29.70;;;11.90;;
64459;SDS011;50828;53.756;21.140;2023-04-05T21:29:11;32.50;;;12.20;;
64459;SDS011;50828;53.756;21.140;2023-04-05T21:34:20;31.30;;;11.80;;
64459;SDS011;50828;53.756;21.140;2023-04-05T21:39:28;26.30;;;11.10;;
64459;SDS011;50828;53.756;21.140;2023-04-05T21:44:36;28.50;;;11.60;;
64459;SDS011;50828;53.756;21.140;2023-04-05T21:49:43;31.30;;;12.30;;
64459;SDS011;50828;53.756;21.140;2023-04-05T21:54:51;30.50;;;11.60;;
64459;SDS011;50828;53.756;21.140;2023-04-05T21:59:59;24.00;;;9.80;;
64459;SDS011;50828;53.756;21.140;2023-04-05T22:05:18;21.00;;;8.70;;
64459;SDS011;50828;53.756;21.140;2023-04-05T22:10:40;28.40;;;10.90;;
64459;SDS011;50828;53.756;21.140;2023-04-05T22:15:49;45.80;;;15.30;;
64459;SDS011;50828;53.756;21.140;2023-04-05T22:20:57;45.50;;;17.00;;
64459;SDS011;50828;53.756;21.140;2023-04-05T22:26:05;44.90;;;15.90;;
64459;SDS011;50828;53.756;21.140;2023-04-05T22:31:14;42.10;;;12.90;;
64459;SDS011;50828;53.756;21.140;2023-04-05T22:36:22;22.70;;;8.40;;
64459;SDS011;50828;53.756;21.140;2023-04-05T22:41:31;19.90;;;8.20;;
64459;SDS011;50828;53.756;21.140;2023-04-05T22:46:39;25.20;;;7.80;;
64459;SDS011;50828;53.756;21.140;2023-04-05T22:51:48;13.60;;;6.20;;
64459;SDS011;50828;53.756;21.140;2023-04-05T22:56:56;12.90;;;6.10;;
64459;SDS011;50828;53.756;21.140;2023-04-05T23:02:04;17.60;;;6.80;;
64459;SDS011;50828;53.756;21.140;2023-04-05T23:07:12;13.60;;;5.40;;
64459;SDS011;50828;53.756;21.140;2023-04-05T23:12:19;9.60;;;4.30;;
64459;SDS011;50828;53.756;21.140;2023-04-05T23:17:26;9.70;;;3.80;;
64459;SDS011;50828;53.756;21.140;2023-04-05T23:22:35;7.40;;;4.00;;
64459;SDS011;50828;53.756;21.140;2023-04-05T23:27:43;9.50;;;4.20;;
64459;SDS011;50828;53.756;21.140;2023-04-05T23:32:52;9.20;;;3.90;;
64459;SDS011;50828;53.756;21.140;2023-04-05T23:38:00;8.80;;;3.60;;
64459;SDS011;50828;53.756;21.140;2023-04-05T23:43:09;8.90;;;3.70;;
64459;SDS011;50828;53.756;21.140;2023-04-05T23:48:17;7.70;;;3.50;;
64459;SDS011;50828;53.756;21.140;2023-04-05T23:53:25;10.70;;;5.20;;
